Terminal Aerodrome Forecast
Issued by NWS

Home | Current Version | Previous Version | Text Only | Print | Product List | Glossary On
Versions: 1 2 3 4 5 6 7 8 9 10 11 12
000
FTUS42 TJSJ 301740
TAFJPS
TAF
TJPS 301740Z 3018/0118 14012KT P6SM VCSH SCT030 BKN060
     FM302330 06004KT P6SM VCSH SCT040
     FM011500 14015KT P6SM FEW030 SCT060
      AMD NOT SKED TIL 010300=

USA.gov is the U.S. government's official web portal to all federal, state and local government web resources and services.